Site contains unofficial IBTrACS data. Visit the IBTrACS Website to access archived data.

1887 Tropical Storm NOT_NAMED (1887274N15341)


IBTrACS version v04r00. Visit IBTrACS website for data access.
Please direct all questions to the IBTrACS Q and A forum

Storm track - Intensity - Wind Radii - Intensity Data - Source Data - All data

Summary Information

Storm ID 1887274N15341
Start Sep 30 12Z
Max Intensity 55 kt (Oct 1 06Z), 994 mb (Oct 4 12Z)
End Oct 9 12Z
ATCF IDs
Track status Best track data.

Storm track plot

Map of storm track

Intensity plots

Map of storm track

Radial wind information

No radial wind information for this storm


Position and Intensity Table

BASIN ISO_TIME_________ NATURE LAT LON MLC WIND MLC PRES
degrees north degrees east kts mb
NA 1887-09-30 12:00:00 TS 14.50 -19.50 30
NA 15:00:00 TS 14.66 -19.75 35
NA 18:00:00 TS 14.80 -20.00 40
NA 21:00:00 TS 14.90 -20.25 45
NA 1887-10-01 00:00:00 TS 15.00 -20.50 50
NA 03:00:00 TS 15.15 -20.75 52
NA 06:00:00 TS 15.30 -21.00 55
NA 09:00:00 TS 15.39 -21.26 55
NA 12:00:00 TS 15.50 -21.50 55
NA 15:00:00 TS 15.68 -21.71 55
NA 18:00:00 TS 15.90 -21.90 55
NA 21:00:00 TS 16.10 -22.10 55
NA 1887-10-02 00:00:00 TS 16.30 -22.30 55
NA 03:00:00 TS 16.51 -22.51 55
NA 06:00:00 TS 16.70 -22.70 55
NA 09:00:00 TS 16.89 -22.84 55
NA 12:00:00 TS 17.00 -23.00 55
NA 15:00:00 TS 16.95 -23.24 55
NA 18:00:00 TS 16.80 -23.50 55
NA 21:00:00 TS 16.66 -23.75 55
NA 1887-10-03 00:00:00 TS 16.50 -24.00 55
NA 03:00:00 TS 16.34 -24.25 55
NA 06:00:00 TS 16.20 -24.50 55
NA 09:00:00 TS 16.09 -24.76 55
NA 12:00:00 TS 16.00 -25.00 55
NA 15:00:00 TS 15.90 -25.17 55
NA 18:00:00 TS 15.80 -25.30 55
NA 21:00:00 TS 15.69 -25.40 55
NA 1887-10-04 00:00:00 TS 15.60 -25.50 55
NA 03:00:00 TS 15.54 -25.65 55
NA 06:00:00 TS 15.50 -25.80 55
NA 09:00:00 TS 15.44 -25.87 55
NA 12:00:00 TS 15.40 -26.00 55 994
NA 15:00:00 TS 15.39 -26.32 55
NA 18:00:00 TS 15.40 -26.70 55
NA 21:00:00 TS 15.40 -27.01 52
NA 1887-10-05 00:00:00 TS 15.40 -27.30 50
NA 03:00:00 TS 15.39 -27.60 47
NA 06:00:00 TS 15.40 -27.90 45
NA 09:00:00 TS 15.43 -28.21 45
NA 12:00:00 TS 15.50 -28.50 45
NA 15:00:00 TS 15.59 -28.76 42
NA 18:00:00 TS 15.70 -29.00 40
NA 21:00:00 TS 15.80 -29.25 40
NA 1887-10-06 00:00:00 TS 15.90 -29.50 40
NA 03:00:00 TS 16.00 -29.75 40
NA 06:00:00 TS 16.10 -30.00 40
NA 09:00:00 TS 16.22 -30.26 40
NA 12:00:00 TS 16.30 -30.50 40
NA 15:00:00 TS 16.31 -30.67 37
NA 18:00:00 TS 16.30 -30.80 35
NA 21:00:00 TS 16.35 -30.90 35
NA 1887-10-07 00:00:00 TS 16.40 -31.00 35
NA 03:00:00 TS 16.40 -31.15 35
NA 06:00:00 TS 16.40 -31.30 35
NA 09:00:00 TS 16.42 -31.43 35
NA 12:00:00 TS 16.50 -31.50 35
NA 15:00:00 TS 16.68 -31.47 35
NA 18:00:00 TS 16.90 -31.40 35
NA 21:00:00 TS 17.10 -31.40 35
NA 1887-10-08 00:00:00 TS 17.30 -31.40 35
NA 03:00:00 TS 17.51 -31.35 35
NA 06:00:00 TS 17.70 -31.30 35
NA 09:00:00 TS 17.81 -31.29 35
NA 12:00:00 TS 18.00 -31.30 35
NA 15:00:00 TS 18.45 -31.29 32
NA 18:00:00 TS 19.00 -31.30 30
NA 21:00:00 TS 19.50 -31.34 30
NA 1887-10-09 00:00:00 TS 20.00 -31.40 30
NA 03:00:00 TS 20.50 -31.46 27
NA 06:00:00 TS 21.00 -31.50 25
NA 09:00:00 TS 21.50 -31.51 25
NA 12:00:00 TS 22.00 -31.50 25

Source Information

Agency Information
USA
TOKYO
CMA
HKO
NEWDELHI
REUNION
BOM
NADI
WELLINGTON
DS824
TD9636
TD9635
NEUMANN
MLC

All available IBTrACS Data

SEASON BASIN SUBBASIN ISO_TIME_________ NATURE LAT LON DIST2LAND LANDFALL IFLAG USA SSHS MLC LAT MLC LON MLC CLASS MLC WIND MLC PRES STORM SPEED STORM DIR
Year degrees north degrees east km km 1 degrees north degrees east kts mb kts degrees
1887 NA NA 1887-09-30 12:00:00 TS 14.50 -19.50 216 216 _____________O -1 14.50 -19.50 TD 30 6 304
1887 NA NA 15:00:00 TS 14.66 -19.75 236 236 _____________P -1 14.66 -19.75 TD 35 6 302
1887 NA NA 18:00:00 TS 14.80 -20.00 269 269 _____________O -1 14.80 -20.00 TS 40 5 296
1887 NA NA 21:00:00 TS 14.90 -20.25 301 301 _____________P -1 14.90 -20.25 TS 45 5 292
1887 NA NA 1887-10-01 00:00:00 TS 15.00 -20.50 324 324 _____________O -1 15.00 -20.50 TS 50 5 297
1887 NA NA 03:00:00 TS 15.15 -20.75 346 346 _____________P -1 15.15 -20.75 TS 52 6 302
1887 NA NA 06:00:00 TS 15.30 -21.00 382 382 _____________O -1 15.30 -21.00 TS 55 5 296
1887 NA NA 09:00:00 TS 15.39 -21.26 415 415 _____________P -1 15.39 -21.26 TS 55 5 293
1887 NA NA 12:00:00 TS 15.50 -21.50 438 438 _____________O -1 15.50 -21.50 TS 55 5 304
1887 NA NA 15:00:00 TS 15.68 -21.71 464 464 _____________P -1 15.68 -21.71 TS 55 6 316
1887 NA NA 18:00:00 TS 15.90 -21.90 490 490 _____________O -1 15.90 -21.90 TS 55 6 318
1887 NA NA 21:00:00 TS 16.10 -22.10 517 517 _____________P -1 16.10 -22.10 TS 55 6 316
1887 NA NA 1887-10-02 00:00:00 TS 16.30 -22.30 544 544 _____________O -1 16.30 -22.30 TS 55 6 316
1887 NA NA 03:00:00 TS 16.51 -22.51 572 572 _____________P -1 16.51 -22.51 TS 55 6 316
1887 NA NA 06:00:00 TS 16.70 -22.70 600 600 _____________O -1 16.70 -22.70 TS 55 5 320
1887 NA NA 09:00:00 TS 16.89 -22.84 618 618 _____________P -1 16.89 -22.84 TS 55 4 316
1887 NA NA 12:00:00 TS 17.00 -23.00 642 642 _____________O -1 17.00 -23.00 TS 55 4 278
1887 NA NA 15:00:00 TS 16.95 -23.24 657 657 _____________P -1 16.95 -23.24 TS 55 5 247
1887 NA NA 18:00:00 TS 16.80 -23.50 683 683 _____________O -1 16.80 -23.50 TS 55 6 240
1887 NA NA 21:00:00 TS 16.66 -23.75 700 700 _____________P -1 16.66 -23.75 TS 55 6 238
1887 NA NA 1887-10-03 00:00:00 TS 16.50 -24.00 724 724 _____________O -1 16.50 -24.00 TS 55 6 237
1887 NA NA 03:00:00 TS 16.34 -24.25 740 740 _____________P -1 16.34 -24.25 TS 55 6 238
1887 NA NA 06:00:00 TS 16.20 -24.50 769 769 _____________O -1 16.20 -24.50 TS 55 6 243
1887 NA NA 09:00:00 TS 16.09 -24.76 798 798 _____________P -1 16.09 -24.76 TS 55 5 247
1887 NA NA 12:00:00 TS 16.00 -25.00 817 817 _____________O -1 16.00 -25.00 TS 55 4 244
1887 NA NA 15:00:00 TS 15.90 -25.17 836 835 _____________P -1 15.90 -25.17 TS 55 4 235
1887 NA NA 18:00:00 TS 15.80 -25.30 846 846 _____________O -1 15.80 -25.30 TS 55 3 227
1887 NA NA 21:00:00 TS 15.69 -25.40 855 854 _____________P -1 15.69 -25.40 TS 55 3 224
1887 NA NA 1887-10-04 00:00:00 TS 15.60 -25.50 864 864 _____________O -1 15.60 -25.50 TS 55 3 238
1887 NA NA 03:00:00 TS 15.54 -25.65 874 874 _____________P -1 15.54 -25.65 TS 55 3 251
1887 NA NA 06:00:00 TS 15.50 -25.80 895 895 _____________O -1 15.50 -25.80 TS 55 2 245
1887 NA NA 09:00:00 TS 15.44 -25.87 905 905 _____________P -1 15.44 -25.87 TS 55 2 243
1887 NA NA 12:00:00 TS 15.40 -26.00 916 916 _____________O -1 15.40 -26.00 TS 55 994 4 263
1887 NA NA 15:00:00 TS 15.39 -26.32 948 948 _____________P -1 15.39 -26.32 TS 55 7 270
1887 NA NA 18:00:00 TS 15.40 -26.70 991 991 _____________O -1 15.40 -26.70 TS 55 7 271
1887 NA NA 21:00:00 TS 15.40 -27.01 1023 1023 _____________P -1 15.40 -27.01 TS 52 6 270
1887 NA NA 1887-10-05 00:00:00 TS 15.40 -27.30 1055 1055 _____________O -1 15.40 -27.30 TS 50 6 269
1887 NA NA 03:00:00 TS 15.39 -27.60 1087 1087 _____________P -1 15.39 -27.60 TS 47 6 270
1887 NA NA 06:00:00 TS 15.40 -27.90 1119 1119 _____________O -1 15.40 -27.90 TS 45 6 274
1887 NA NA 09:00:00 TS 15.43 -28.21 1152 1152 _____________P -1 15.43 -28.21 TS 45 6 280
1887 NA NA 12:00:00 TS 15.50 -28.50 1184 1184 _____________O -1 15.50 -28.50 TS 45 6 287
1887 NA NA 15:00:00 TS 15.59 -28.76 1217 1217 _____________P -1 15.59 -28.76 TS 42 5 293
1887 NA NA 18:00:00 TS 15.70 -29.00 1239 1239 _____________O -1 15.70 -29.00 TS 40 5 294
1887 NA NA 21:00:00 TS 15.80 -29.25 1272 1272 _____________P -1 15.80 -29.25 TS 40 5 293
1887 NA NA 1887-10-06 00:00:00 TS 15.90 -29.50 1294 1294 _____________O -1 15.90 -29.50 TS 40 5 293
1887 NA NA 03:00:00 TS 16.00 -29.75 1327 1327 _____________P -1 16.00 -29.75 TS 40 5 293
1887 NA NA 06:00:00 TS 16.10 -30.00 1349 1349 _____________O -1 16.10 -30.00 TS 40 5 293
1887 NA NA 09:00:00 TS 16.22 -30.26 1382 1382 _____________P -1 16.22 -30.26 TS 40 5 293
1887 NA NA 12:00:00 TS 16.30 -30.50 1404 1404 _____________O -1 16.30 -30.50 TS 40 4 283
1887 NA NA 15:00:00 TS 16.31 -30.67 1425 1425 _____________P -1 16.31 -30.67 TS 37 3 270
1887 NA NA 18:00:00 TS 16.30 -30.80 1436 1436 _____________O -1 16.30 -30.80 TS 35 2 281
1887 NA NA 21:00:00 TS 16.35 -30.90 1447 1447 _____________P -1 16.35 -30.90 TS 35 2 297
1887 NA NA 1887-10-07 00:00:00 TS 16.40 -31.00 1458 1458 _____________O -1 16.40 -31.00 TS 35 2 282
1887 NA NA 03:00:00 TS 16.40 -31.15 1480 1480 _____________P -1 16.40 -31.15 TS 35 3 270
1887 NA NA 06:00:00 TS 16.40 -31.30 1490 1490 _____________O -1 16.40 -31.30 TS 35 3 274
1887 NA NA 09:00:00 TS 16.42 -31.43 1501 1501 _____________P -1 16.42 -31.43 TS 35 2 297
1887 NA NA 12:00:00 TS 16.50 -31.50 1513 1513 _____________O -1 16.50 -31.50 TS 35 3 353
1887 NA NA 15:00:00 TS 16.68 -31.47 1515 1504 _____________P -1 16.68 -31.47 TS 35 4 13
1887 NA NA 18:00:00 TS 16.90 -31.40 1507 1507 _____________O -1 16.90 -31.40 TS 35 4 7
1887 NA NA 21:00:00 TS 17.10 -31.40 1510 1510 _____________P -1 17.10 -31.40 TS 35 4 0
1887 NA NA 1887-10-08 00:00:00 TS 17.30 -31.40 1514 1514 _____________O -1 17.30 -31.40 TS 35 4 5
1887 NA NA 03:00:00 TS 17.51 -31.35 1517 1507 _____________P -1 17.51 -31.35 TS 35 4 13
1887 NA NA 06:00:00 TS 17.70 -31.30 1511 1511 _____________O -1 17.70 -31.30 TS 35 3 12
1887 NA NA 09:00:00 TS 17.81 -31.29 1513 1513 _____________P -1 17.81 -31.29 TS 35 3 0
1887 NA NA 12:00:00 TS 18.00 -31.30 1517 1510 _____________O -1 18.00 -31.30 TS 35 6 358
1887 NA NA 15:00:00 TS 18.45 -31.29 1510 1497 _____________P -1 18.45 -31.29 TS 32 10 1
1887 NA NA 18:00:00 TS 19.00 -31.30 1497 1488 _____________O -1 19.00 -31.30 TD 30 11 358
1887 NA NA 21:00:00 TS 19.50 -31.34 1488 1487 _____________P -1 19.50 -31.34 TD 30 10 354
1887 NA NA 1887-10-09 00:00:00 TS 20.00 -31.40 1492 1488 _____________O -1 20.00 -31.40 TD 30 10 354
1887 NA NA 03:00:00 TS 20.50 -31.46 1497 1495 _____________P -1 20.50 -31.46 TD 27 10 354
1887 NA NA 06:00:00 TS 21.00 -31.50 1495 1494 _____________O -1 21.00 -31.50 TD 25 10 357
1887 NA NA 09:00:00 TS 21.50 -31.51 1494 1494 _____________P -1 21.50 -31.51 TD 25 10 1
1887 NA NA 12:00:00 TS 22.00 -31.50 1495 _____________O -1 22.00 -31.50 TD 25 10 2